sensor_id;sensor_type;location;lat;lon;timestamp;P1;durP1;ratioP1;P2;durP2;ratioP2
28766;SDS011;15921;52.034;20.650;2022-08-21T00:00:16;48.28;;;30.55;;
28766;SDS011;15921;52.034;20.650;2022-08-21T00:02:47;51.05;;;28.88;;
28766;SDS011;15921;52.034;20.650;2022-08-21T00:05:19;46.25;;;27.70;;
28766;SDS011;15921;52.034;20.650;2022-08-21T00:07:46;35.83;;;22.25;;
28766;SDS011;15921;52.034;20.650;2022-08-21T00:10:12;29.83;;;18.40;;
28766;SDS011;15921;52.034;20.650;2022-08-21T00:12:39;34.60;;;19.90;;
28766;SDS011;15921;52.034;20.650;2022-08-21T00:15:07;23.58;;;15.52;;
28766;SDS011;15921;52.034;20.650;2022-08-21T00:17:34;20.90;;;14.20;;
28766;SDS011;15921;52.034;20.650;2022-08-21T00:20:02;26.98;;;14.60;;
28766;SDS011;15921;52.034;20.650;2022-08-21T00:22:29;18.10;;;12.05;;
28766;SDS011;15921;52.034;20.650;2022-08-21T00:24:55;14.70;;;9.00;;
28766;SDS011;15921;52.034;20.650;2022-08-21T00:27:27;16.95;;;9.55;;
28766;SDS011;15921;52.034;20.650;2022-08-21T00:29:53;15.15;;;9.18;;
28766;SDS011;15921;52.034;20.650;2022-08-21T00:32:23;12.38;;;8.73;;
28766;SDS011;15921;52.034;20.650;2022-08-21T00:34:51;14.85;;;8.57;;
28766;SDS011;15921;52.034;20.650;2022-08-21T00:37:17;14.85;;;8.77;;
28766;SDS011;15921;52.034;20.650;2022-08-21T00:39:43;14.57;;;9.38;;
28766;SDS011;15921;52.034;20.650;2022-08-21T00:42:09;13.70;;;8.93;;
28766;SDS011;15921;52.034;20.650;2022-08-21T00:44:40;13.02;;;8.45;;
28766;SDS011;15921;52.034;20.650;2022-08-21T00:47:08;14.60;;;8.55;;
28766;SDS011;15921;52.034;20.650;2022-08-21T00:49:34;12.68;;;8.73;;
28766;SDS011;15921;52.034;20.650;2022-08-21T00:52:00;13.43;;;8.57;;
28766;SDS011;15921;52.034;20.650;2022-08-21T00:54:28;13.48;;;8.65;;
28766;SDS011;15921;52.034;20.650;2022-08-21T00:56:57;9.27;;;7.60;;
28766;SDS011;15921;52.034;20.650;2022-08-21T00:59:26;12.07;;;7.78;;
28766;SDS011;15921;52.034;20.650;2022-08-21T01:01:54;15.82;;;8.80;;
28766;SDS011;15921;52.034;20.650;2022-08-21T01:04:20;10.73;;;7.82;;
28766;SDS011;15921;52.034;20.650;2022-08-21T01:06:48;14.73;;;8.88;;
28766;SDS011;15921;52.034;20.650;2022-08-21T01:09:16;13.38;;;8.32;;
28766;SDS011;15921;52.034;20.650;2022-08-21T01:11:43;12.38;;;8.00;;
28766;SDS011;15921;52.034;20.650;2022-08-21T01:14:11;11.10;;;8.15;;
28766;SDS011;15921;52.034;20.650;2022-08-21T01:16:41;23.70;;;8.45;;
28766;SDS011;15921;52.034;20.650;2022-08-21T01:19:10;13.65;;;7.93;;
28766;SDS011;15921;52.034;20.650;2022-08-21T01:21:37;12.75;;;8.25;;
28766;SDS011;15921;52.034;20.650;2022-08-21T01:24:03;11.80;;;8.48;;
28766;SDS011;15921;52.034;20.650;2022-08-21T01:26:31;15.73;;;7.57;;
28766;SDS011;15921;52.034;20.650;2022-08-21T01:29:01;10.55;;;8.05;;
28766;SDS011;15921;52.034;20.650;2022-08-21T01:31:29;11.10;;;8.23;;
28766;SDS011;15921;52.034;20.650;2022-08-21T01:33:58;12.35;;;7.82;;
28766;SDS011;15921;52.034;20.650;2022-08-21T01:36:24;11.13;;;8.23;;
28766;SDS011;15921;52.034;20.650;2022-08-21T01:38:51;11.35;;;8.02;;
28766;SDS011;15921;52.034;20.650;2022-08-21T01:41:17;12.88;;;8.23;;
28766;SDS011;15921;52.034;20.650;2022-08-21T01:43:43;11.95;;;7.90;;
28766;SDS011;15921;52.034;20.650;2022-08-21T01:46:10;11.32;;;7.45;;
28766;SDS011;15921;52.034;20.650;2022-08-21T01:48:38;12.30;;;8.30;;
28766;SDS011;15921;52.034;20.650;2022-08-21T01:51:11;11.52;;;8.02;;
28766;SDS011;15921;52.034;20.650;2022-08-21T01:53:37;13.40;;;7.57;;
28766;SDS011;15921;52.034;20.650;2022-08-21T01:56:07;15.77;;;8.18;;
28766;SDS011;15921;52.034;20.650;2022-08-21T01:58:34;12.60;;;7.53;;
28766;SDS011;15921;52.034;20.650;2022-08-21T02:01:03;11.95;;;8.10;;
28766;SDS011;15921;52.034;20.650;2022-08-21T02:03:29;12.15;;;8.48;;
28766;SDS011;15921;52.034;20.650;2022-08-21T02:06:00;12.13;;;8.40;;
28766;SDS011;15921;52.034;20.650;2022-08-21T02:08:31;10.13;;;7.78;;
28766;SDS011;15921;52.034;20.650;2022-08-21T02:11:00;10.98;;;7.97;;
28766;SDS011;15921;52.034;20.650;2022-08-21T02:13:26;11.65;;;8.07;;
28766;SDS011;15921;52.034;20.650;2022-08-21T02:16:00;11.93;;;7.97;;
28766;SDS011;15921;52.034;20.650;2022-08-21T02:18:26;12.00;;;7.40;;
28766;SDS011;15921;52.034;20.650;2022-08-21T02:20:52;9.73;;;7.80;;
28766;SDS011;15921;52.034;20.650;2022-08-21T02:23:18;10.93;;;8.23;;
28766;SDS011;15921;52.034;20.650;2022-08-21T02:25:44;13.35;;;8.23;;
28766;SDS011;15921;52.034;20.650;2022-08-21T02:28:13;12.52;;;8.07;;
28766;SDS011;15921;52.034;20.650;2022-08-21T02:30:45;9.45;;;7.55;;
28766;SDS011;15921;52.034;20.650;2022-08-21T02:33:13;11.18;;;7.45;;
28766;SDS011;15921;52.034;20.650;2022-08-21T02:35:42;13.18;;;8.82;;
28766;SDS011;15921;52.034;20.650;2022-08-21T02:38:13;10.55;;;7.97;;
28766;SDS011;15921;52.034;20.650;2022-08-21T02:40:42;10.07;;;7.90;;
28766;SDS011;15921;52.034;20.650;2022-08-21T02:43:10;12.52;;;7.72;;
28766;SDS011;15921;52.034;20.650;2022-08-21T02:45:40;13.60;;;7.40;;
28766;SDS011;15921;52.034;20.650;2022-08-21T02:48:08;14.85;;;8.38;;
28766;SDS011;15921;52.034;20.650;2022-08-21T02:50:37;14.25;;;7.18;;
28766;SDS011;15921;52.034;20.650;2022-08-21T02:53:08;10.13;;;7.38;;
28766;SDS011;15921;52.034;20.650;2022-08-21T02:55:35;12.00;;;7.30;;
28766;SDS011;15921;52.034;20.650;2022-08-21T02:58:03;11.32;;;8.00;;
28766;SDS011;15921;52.034;20.650;2022-08-21T03:00:31;14.20;;;7.78;;
28766;SDS011;15921;52.034;20.650;2022-08-21T03:02:57;14.60;;;8.27;;
28766;SDS011;15921;52.034;20.650;2022-08-21T03:05:24;11.02;;;8.35;;
28766;SDS011;15921;52.034;20.650;2022-08-21T03:07:51;10.20;;;8.60;;
28766;SDS011;15921;52.034;20.650;2022-08-21T03:10:22;14.38;;;8.80;;
28766;SDS011;15921;52.034;20.650;2022-08-21T03:12:48;12.50;;;8.38;;
28766;SDS011;15921;52.034;20.650;2022-08-21T03:15:18;12.02;;;8.52;;
28766;SDS011;15921;52.034;20.650;2022-08-21T03:17:45;10.80;;;8.70;;
28766;SDS011;15921;52.034;20.650;2022-08-21T03:20:13;12.10;;;8.73;;
28766;SDS011;15921;52.034;20.650;2022-08-21T03:22:41;12.15;;;8.77;;
28766;SDS011;15921;52.034;20.650;2022-08-21T03:25:10;18.55;;;8.80;;
28766;SDS011;15921;52.034;20.650;2022-08-21T03:27:36;12.65;;;8.85;;
28766;SDS011;15921;52.034;20.650;2022-08-21T03:30:04;12.80;;;8.60;;
28766;SDS011;15921;52.034;20.650;2022-08-21T03:32:31;13.90;;;9.38;;
28766;SDS011;15921;52.034;20.650;2022-08-21T03:34:57;13.52;;;8.57;;
28766;SDS011;15921;52.034;20.650;2022-08-21T03:37:25;14.32;;;9.02;;
28766;SDS011;15921;52.034;20.650;2022-08-21T03:39:56;13.65;;;9.43;;
28766;SDS011;15921;52.034;20.650;2022-08-21T03:43:01;13.55;;;9.35;;
28766;SDS011;15921;52.034;20.650;2022-08-21T03:45:27;12.20;;;9.38;;
28766;SDS011;15921;52.034;20.650;2022-08-21T03:47:58;13.35;;;7.78;;
28766;SDS011;15921;52.034;20.650;2022-08-21T03:50:28;12.02;;;8.50;;
28766;SDS011;15921;52.034;20.650;2022-08-21T03:52:56;12.32;;;8.13;;
28766;SDS011;15921;52.034;20.650;2022-08-21T03:55:23;13.77;;;8.15;;
28766;SDS011;15921;52.034;20.650;2022-08-21T03:57:50;10.00;;;8.20;;
28766;SDS011;15921;52.034;20.650;2022-08-21T04:00:17;14.18;;;8.15;;
28766;SDS011;15921;52.034;20.650;2022-08-21T04:02:44;8.60;;;7.70;;
28766;SDS011;15921;52.034;20.650;2022-08-21T04:05:11;12.10;;;8.00;;
28766;SDS011;15921;52.034;20.650;2022-08-21T04:07:38;10.63;;;8.00;;
28766;SDS011;15921;52.034;20.650;2022-08-21T04:10:05;11.73;;;7.72;;
28766;SDS011;15921;52.034;20.650;2022-08-21T04:12:31;11.30;;;7.60;;
28766;SDS011;15921;52.034;20.650;2022-08-21T04:14:58;12.13;;;8.52;;
28766;SDS011;15921;52.034;20.650;2022-08-21T04:17:24;11.40;;;7.72;;
28766;SDS011;15921;52.034;20.650;2022-08-21T04:19:50;8.88;;;6.65;;
28766;SDS011;15921;52.034;20.650;2022-08-21T04:22:16;11.30;;;7.50;;
28766;SDS011;15921;52.034;20.650;2022-08-21T04:24:42;12.20;;;7.57;;
28766;SDS011;15921;52.034;20.650;2022-08-21T04:27:07;9.75;;;7.03;;
28766;SDS011;15921;52.034;20.650;2022-08-21T04:29:33;11.40;;;7.20;;
28766;SDS011;15921;52.034;20.650;2022-08-21T04:31:59;11.40;;;7.20;;
28766;SDS011;15921;52.034;20.650;2022-08-21T04:34:25;11.25;;;7.65;;
28766;SDS011;15921;52.034;20.650;2022-08-21T04:36:50;12.77;;;7.82;;
28766;SDS011;15921;52.034;20.650;2022-08-21T04:39:16;9.02;;;6.78;;
28766;SDS011;15921;52.034;20.650;2022-08-21T04:41:42;11.30;;;8.02;;
28766;SDS011;15921;52.034;20.650;2022-08-21T04:44:08;16.90;;;7.57;;
28766;SDS011;15921;52.034;20.650;2022-08-21T04:46:33;13.82;;;8.63;;
28766;SDS011;15921;52.034;20.650;2022-08-21T04:49:00;11.70;;;7.57;;
28766;SDS011;15921;52.034;20.650;2022-08-21T04:51:27;10.63;;;7.45;;
28766;SDS011;15921;52.034;20.650;2022-08-21T04:54:06;13.05;;;7.30;;
28766;SDS011;15921;52.034;20.650;2022-08-21T04:56:42;13.20;;;7.80;;
28766;SDS011;15921;52.034;20.650;2022-08-21T04:59:22;9.15;;;6.72;;
28766;SDS011;15921;52.034;20.650;2022-08-21T05:01:52;12.23;;;7.13;;
28766;SDS011;15921;52.034;20.650;2022-08-21T05:04:22;11.65;;;7.75;;
28766;SDS011;15921;52.034;20.650;2022-08-21T05:06:52;8.63;;;6.43;;
28766;SDS011;15921;52.034;20.650;2022-08-21T05:09:21;9.98;;;7.30;;
28766;SDS011;15921;52.034;20.650;2022-08-21T05:11:48;13.45;;;7.25;;
28766;SDS011;15921;52.034;20.650;2022-08-21T05:14:16;9.63;;;6.40;;
28766;SDS011;15921;52.034;20.650;2022-08-21T05:16:42;10.50;;;7.10;;
28766;SDS011;15921;52.034;20.650;2022-08-21T05:19:09;13.38;;;6.70;;
28766;SDS011;15921;52.034;20.650;2022-08-21T05:21:36;15.93;;;7.82;;
28766;SDS011;15921;52.034;20.650;2022-08-21T05:24:03;12.70;;;6.85;;
28766;SDS011;15921;52.034;20.650;2022-08-21T05:26:29;9.73;;;6.43;;
28766;SDS011;15921;52.034;20.650;2022-08-21T05:28:55;10.10;;;7.05;;
28766;SDS011;15921;52.034;20.650;2022-08-21T05:31:21;11.93;;;6.00;;
28766;SDS011;15921;52.034;20.650;2022-08-21T05:33:47;9.05;;;6.35;;
28766;SDS011;15921;52.034;20.650;2022-08-21T05:36:13;10.50;;;7.32;;
28766;SDS011;15921;52.034;20.650;2022-08-21T05:38:39;8.02;;;6.88;;
28766;SDS011;15921;52.034;20.650;2022-08-21T05:41:05;8.45;;;6.80;;
28766;SDS011;15921;52.034;20.650;2022-08-21T05:43:32;9.32;;;6.57;;
28766;SDS011;15921;52.034;20.650;2022-08-21T05:46:01;8.18;;;6.28;;
28766;SDS011;15921;52.034;20.650;2022-08-21T05:48:27;10.35;;;6.90;;
28766;SDS011;15921;52.034;20.650;2022-08-21T05:50:53;12.85;;;6.70;;
28766;SDS011;15921;52.034;20.650;2022-08-21T05:53:20;10.90;;;6.32;;
28766;SDS011;15921;52.034;20.650;2022-08-21T05:55:47;10.35;;;6.60;;
28766;SDS011;15921;52.034;20.650;2022-08-21T05:58:14;14.27;;;6.70;;
28766;SDS011;15921;52.034;20.650;2022-08-21T06:00:42;15.35;;;6.68;;
28766;SDS011;15921;52.034;20.650;2022-08-21T06:03:16;7.90;;;6.78;;
28766;SDS011;15921;52.034;20.650;2022-08-21T06:05:50;8.75;;;6.45;;
28766;SDS011;15921;52.034;20.650;2022-08-21T06:08:16;8.68;;;6.00;;
28766;SDS011;15921;52.034;20.650;2022-08-21T06:10:43;9.90;;;6.70;;
28766;SDS011;15921;52.034;20.650;2022-08-21T06:13:09;11.88;;;6.80;;
28766;SDS011;15921;52.034;20.650;2022-08-21T06:15:35;11.18;;;6.25;;
28766;SDS011;15921;52.034;20.650;2022-08-21T06:18:01;14.27;;;6.65;;
28766;SDS011;15921;52.034;20.650;2022-08-21T06:20:27;11.15;;;7.03;;
28766;SDS011;15921;52.034;20.650;2022-08-21T06:22:53;17.52;;;7.18;;
28766;SDS011;15921;52.034;20.650;2022-08-21T06:25:19;8.15;;;6.38;;
28766;SDS011;15921;52.034;20.650;2022-08-21T06:27:45;8.75;;;6.65;;
28766;SDS011;15921;52.034;20.650;2022-08-21T06:30:11;13.68;;;6.70;;
28766;SDS011;15921;52.034;20.650;2022-08-21T06:32:37;7.88;;;6.03;;
28766;SDS011;15921;52.034;20.650;2022-08-21T06:35:03;8.88;;;6.20;;
28766;SDS011;15921;52.034;20.650;2022-08-21T06:37:29;10.65;;;6.80;;
28766;SDS011;15921;52.034;20.650;2022-08-21T06:39:55;10.82;;;6.72;;
28766;SDS011;15921;52.034;20.650;2022-08-21T06:42:21;9.23;;;6.18;;
28766;SDS011;15921;52.034;20.650;2022-08-21T06:44:47;9.75;;;6.78;;
28766;SDS011;15921;52.034;20.650;2022-08-21T06:47:13;10.55;;;5.70;;
28766;SDS011;15921;52.034;20.650;2022-08-21T06:49:39;9.35;;;6.30;;
28766;SDS011;15921;52.034;20.650;2022-08-21T06:52:08;8.90;;;6.07;;
28766;SDS011;15921;52.034;20.650;2022-08-21T06:54:35;9.07;;;6.40;;
28766;SDS011;15921;52.034;20.650;2022-08-21T06:57:01;11.13;;;6.43;;
28766;SDS011;15921;52.034;20.650;2022-08-21T06:59:27;9.40;;;6.75;;
28766;SDS011;15921;52.034;20.650;2022-08-21T07:01:53;13.10;;;6.55;;
28766;SDS011;15921;52.034;20.650;2022-08-21T07:04:19;13.65;;;6.97;;
28766;SDS011;15921;52.034;20.650;2022-08-21T07:06:45;7.97;;;6.53;;
28766;SDS011;15921;52.034;20.650;2022-08-21T07:09:11;8.65;;;6.25;;
28766;SDS011;15921;52.034;20.650;2022-08-21T07:11:37;10.77;;;6.65;;
28766;SDS011;15921;52.034;20.650;2022-08-21T07:14:03;11.20;;;7.25;;
28766;SDS011;15921;52.034;20.650;2022-08-21T07:16:29;12.25;;;6.40;;
28766;SDS011;15921;52.034;20.650;2022-08-21T07:18:54;8.23;;;5.80;;
28766;SDS011;15921;52.034;20.650;2022-08-21T07:21:20;11.38;;;6.45;;
28766;SDS011;15921;52.034;20.650;2022-08-21T07:23:50;9.52;;;6.13;;
28766;SDS011;15921;52.034;20.650;2022-08-21T07:26:17;8.77;;;6.78;;
28766;SDS011;15921;52.034;20.650;2022-08-21T07:28:46;15.15;;;6.10;;
28766;SDS011;15921;52.034;20.650;2022-08-21T07:31:13;7.55;;;6.03;;
28766;SDS011;15921;52.034;20.650;2022-08-21T07:33:41;7.72;;;5.72;;
28766;SDS011;15921;52.034;20.650;2022-08-21T07:36:07;13.48;;;6.20;;
28766;SDS011;15921;52.034;20.650;2022-08-21T07:38:34;8.50;;;6.13;;
28766;SDS011;15921;52.034;20.650;2022-08-21T07:41:00;10.70;;;6.82;;
28766;SDS011;15921;52.034;20.650;2022-08-21T07:43:27;11.20;;;5.95;;
28766;SDS011;15921;52.034;20.650;2022-08-21T07:45:53;9.07;;;5.55;;
28766;SDS011;15921;52.034;20.650;2022-08-21T07:48:22;8.90;;;5.80;;
28766;SDS011;15921;52.034;20.650;2022-08-21T07:50:48;10.45;;;6.10;;
28766;SDS011;15921;52.034;20.650;2022-08-21T07:53:15;8.63;;;5.47;;
28766;SDS011;15921;52.034;20.650;2022-08-21T07:55:41;8.20;;;5.43;;
28766;SDS011;15921;52.034;20.650;2022-08-21T07:58:07;7.95;;;5.57;;
28766;SDS011;15921;52.034;20.650;2022-08-21T08:00:32;7.22;;;5.40;;
28766;SDS011;15921;52.034;20.650;2022-08-21T08:02:59;10.18;;;6.03;;
28766;SDS011;15921;52.034;20.650;2022-08-21T08:05:26;9.93;;;5.45;;
28766;SDS011;15921;52.034;20.650;2022-08-21T08:07:55;7.68;;;5.32;;
28766;SDS011;15921;52.034;20.650;2022-08-21T08:10:21;6.25;;;5.60;;
28766;SDS011;15921;52.034;20.650;2022-08-21T08:12:48;7.35;;;5.80;;
28766;SDS011;15921;52.034;20.650;2022-08-21T08:15:17;9.20;;;5.47;;
28766;SDS011;15921;52.034;20.650;2022-08-21T08:17:46;10.10;;;5.60;;
28766;SDS011;15921;52.034;20.650;2022-08-21T08:20:13;8.48;;;5.22;;
28766;SDS011;15921;52.034;20.650;2022-08-21T08:22:40;6.28;;;5.20;;
28766;SDS011;15921;52.034;20.650;2022-08-21T08:25:07;8.55;;;5.03;;
28766;SDS011;15921;52.034;20.650;2022-08-21T08:27:33;10.60;;;5.10;;
28766;SDS011;15921;52.034;20.650;2022-08-21T08:29:59;6.40;;;5.15;;
28766;SDS011;15921;52.034;20.650;2022-08-21T08:32:24;8.25;;;4.95;;
28766;SDS011;15921;52.034;20.650;2022-08-21T08:34:50;7.43;;;4.45;;
28766;SDS011;15921;52.034;20.650;2022-08-21T08:37:17;6.45;;;5.10;;
28766;SDS011;15921;52.034;20.650;2022-08-21T08:39:45;7.95;;;5.20;;
28766;SDS011;15921;52.034;20.650;2022-08-21T08:42:11;8.43;;;4.90;;
28766;SDS011;15921;52.034;20.650;2022-08-21T08:44:55;9.70;;;5.15;;
28766;SDS011;15921;52.034;20.650;2022-08-21T08:47:32;9.57;;;4.80;;
28766;SDS011;15921;52.034;20.650;2022-08-21T08:50:10;8.35;;;5.05;;
28766;SDS011;15921;52.034;20.650;2022-08-21T08:52:43;8.85;;;4.57;;
28766;SDS011;15921;52.034;20.650;2022-08-21T08:55:21;7.07;;;4.18;;
28766;SDS011;15921;52.034;20.650;2022-08-21T08:57:51;7.05;;;4.70;;
28766;SDS011;15921;52.034;20.650;2022-08-21T09:00:20;8.02;;;4.50;;
28766;SDS011;15921;52.034;20.650;2022-08-21T09:02:47;6.97;;;4.63;;
28766;SDS011;15921;52.034;20.650;2022-08-21T09:05:25;7.90;;;5.30;;
28766;SDS011;15921;52.034;20.650;2022-08-21T09:10:49;10.17;;;4.57;;
28766;SDS011;15921;52.034;20.650;2022-08-21T09:13:27;5.72;;;4.40;;
28766;SDS011;15921;52.034;20.650;2022-08-21T09:19:03;5.60;;;3.75;;
28766;SDS011;15921;52.034;20.650;2022-08-21T09:29:37;6.10;;;3.30;;
28766;SDS011;15921;52.034;20.650;2022-08-21T09:32:09;4.45;;;3.28;;
28766;SDS011;15921;52.034;20.650;2022-08-21T09:34:42;9.05;;;4.03;;
28766;SDS011;15921;52.034;20.650;2022-08-21T09:37:19;5.00;;;4.47;;
28766;SDS011;15921;52.034;20.650;2022-08-21T09:39:45;6.82;;;4.40;;
28766;SDS011;15921;52.034;20.650;2022-08-21T09:42:10;6.55;;;3.72;;
28766;SDS011;15921;52.034;20.650;2022-08-21T09:44:37;7.85;;;4.03;;
28766;SDS011;15921;52.034;20.650;2022-08-21T09:47:08;9.07;;;4.50;;
28766;SDS011;15921;52.034;20.650;2022-08-21T09:49:38;6.90;;;4.38;;
28766;SDS011;15921;52.034;20.650;2022-08-21T09:52:11;8.10;;;4.10;;
28766;SDS011;15921;52.034;20.650;2022-08-21T09:54:51;8.45;;;3.85;;
28766;SDS011;15921;52.034;20.650;2022-08-21T09:57:24;5.78;;;4.00;;
28766;SDS011;15921;52.034;20.650;2022-08-21T10:00:37;5.70;;;3.88;;
28766;SDS011;15921;52.034;20.650;2022-08-21T10:03:07;6.55;;;3.88;;
28766;SDS011;15921;52.034;20.650;2022-08-21T10:05:40;7.75;;;3.65;;
28766;SDS011;15921;52.034;20.650;2022-08-21T10:08:30;7.25;;;3.40;;
28766;SDS011;15921;52.034;20.650;2022-08-21T10:11:02;3.95;;;3.10;;
28766;SDS011;15921;52.034;20.650;2022-08-21T10:19:33;7.22;;;3.60;;
28766;SDS011;15921;52.034;20.650;2022-08-21T10:25:14;5.43;;;3.60;;
28766;SDS011;15921;52.034;20.650;2022-08-21T10:30:17;10.20;;;3.72;;
28766;SDS011;15921;52.034;20.650;2022-08-21T10:32:54;4.03;;;3.30;;
28766;SDS011;15921;52.034;20.650;2022-08-21T10:35:44;5.03;;;3.30;;
28766;SDS011;15921;52.034;20.650;2022-08-21T10:41:27;6.43;;;3.70;;
28766;SDS011;15921;52.034;20.650;2022-08-21T10:44:04;9.32;;;3.90;;
28766;SDS011;15921;52.034;20.650;2022-08-21T10:49:41;7.68;;;4.03;;
28766;SDS011;15921;52.034;20.650;2022-08-21T10:55:15;4.22;;;3.40;;
28766;SDS011;15921;52.034;20.650;2022-08-21T10:57:58;8.15;;;3.85;;
28766;SDS011;15921;52.034;20.650;2022-08-21T11:00:39;5.90;;;3.65;;
28766;SDS011;15921;52.034;20.650;2022-08-21T11:03:17;6.63;;;4.25;;
28766;SDS011;15921;52.034;20.650;2022-08-21T11:05:47;4.93;;;4.25;;
28766;SDS011;15921;52.034;20.650;2022-08-21T11:08:38;9.70;;;3.70;;
28766;SDS011;15921;52.034;20.650;2022-08-21T11:11:04;6.65;;;3.25;;
28766;SDS011;15921;52.034;20.650;2022-08-21T11:13:41;5.13;;;3.08;;
28766;SDS011;15921;52.034;20.650;2022-08-21T11:21:32;6.70;;;3.47;;
28766;SDS011;15921;52.034;20.650;2022-08-21T11:24:14;5.00;;;3.38;;
28766;SDS011;15921;52.034;20.650;2022-08-21T11:27:15;9.43;;;3.20;;
28766;SDS011;15921;52.034;20.650;2022-08-21T11:29:44;4.65;;;3.20;;
28766;SDS011;15921;52.034;20.650;2022-08-21T11:43:17;5.50;;;3.47;;
28766;SDS011;15921;52.034;20.650;2022-08-21T11:49:21;5.50;;;3.40;;
28766;SDS011;15921;52.034;20.650;2022-08-21T11:57:01;6.40;;;3.58;;
28766;SDS011;15921;52.034;20.650;2022-08-21T11:59:59;5.43;;;3.40;;
28766;SDS011;15921;52.034;20.650;2022-08-21T12:02:43;5.35;;;3.83;;
28766;SDS011;15921;52.034;20.650;2022-08-21T12:05:22;4.85;;;3.40;;
28766;SDS011;15921;52.034;20.650;2022-08-21T12:07:59;5.90;;;3.47;;
28766;SDS011;15921;52.034;20.650;2022-08-21T12:10:38;4.88;;;3.17;;
28766;SDS011;15921;52.034;20.650;2022-08-21T12:13:21;12.30;;;3.70;;
28766;SDS011;15921;52.034;20.650;2022-08-21T12:15:49;5.50;;;3.63;;
28766;SDS011;15921;52.034;20.650;2022-08-21T12:18:23;7.15;;;3.60;;
28766;SDS011;15921;52.034;20.650;2022-08-21T12:23:46;10.07;;;3.63;;
28766;SDS011;15921;52.034;20.650;2022-08-21T12:26:26;8.57;;;3.50;;
28766;SDS011;15921;52.034;20.650;2022-08-21T12:29:07;12.95;;;7.35;;
28766;SDS011;15921;52.034;20.650;2022-08-21T12:31:53;7.28;;;5.43;;
28766;SDS011;15921;52.034;20.650;2022-08-21T12:34:40;6.88;;;4.30;;
28766;SDS011;15921;52.034;20.650;2022-08-21T12:40:23;5.38;;;3.70;;
28766;SDS011;15921;52.034;20.650;2022-08-21T12:42:55;7.10;;;3.63;;
28766;SDS011;15921;52.034;20.650;2022-08-21T12:45:43;7.22;;;3.65;;
28766;SDS011;15921;52.034;20.650;2022-08-21T12:48:26;6.13;;;3.80;;
28766;SDS011;15921;52.034;20.650;2022-08-21T12:50:53;6.88;;;4.10;;
28766;SDS011;15921;52.034;20.650;2022-08-21T12:55:56;4.15;;;3.47;;
28766;SDS011;15921;52.034;20.650;2022-08-21T12:58:29;5.80;;;3.47;;
28766;SDS011;15921;52.034;20.650;2022-08-21T13:00:58;6.18;;;3.40;;
28766;SDS011;15921;52.034;20.650;2022-08-21T13:03:30;8.80;;;4.03;;
28766;SDS011;15921;52.034;20.650;2022-08-21T13:05:57;5.20;;;3.03;;
28766;SDS011;15921;52.034;20.650;2022-08-21T13:08:24;5.45;;;3.05;;
28766;SDS011;15921;52.034;20.650;2022-08-21T13:10:56;5.32;;;3.35;;
28766;SDS011;15921;52.034;20.650;2022-08-21T13:13:26;7.30;;;3.10;;
28766;SDS011;15921;52.034;20.650;2022-08-21T13:16:00;3.60;;;2.70;;
28766;SDS011;15921;52.034;20.650;2022-08-21T13:18:30;4.85;;;2.85;;
28766;SDS011;15921;52.034;20.650;2022-08-21T13:21:09;4.68;;;2.75;;
28766;SDS011;15921;52.034;20.650;2022-08-21T13:23:39;3.72;;;2.90;;
28766;SDS011;15921;52.034;20.650;2022-08-21T13:26:38;4.63;;;2.60;;
28766;SDS011;15921;52.034;20.650;2022-08-21T13:28:57;7.45;;;2.95;;
28766;SDS011;15921;52.034;20.650;2022-08-21T13:31:33;5.25;;;2.80;;
28766;SDS011;15921;52.034;20.650;2022-08-21T13:33:58;5.35;;;2.80;;
28766;SDS011;15921;52.034;20.650;2022-08-21T13:36:34;7.35;;;2.75;;
28766;SDS011;15921;52.034;20.650;2022-08-21T13:39:03;4.78;;;2.30;;
28766;SDS011;15921;52.034;20.650;2022-08-21T13:41:34;4.90;;;2.38;;
28766;SDS011;15921;52.034;20.650;2022-08-21T13:44:05;7.05;;;2.53;;
28766;SDS011;15921;52.034;20.650;2022-08-21T13:46:43;4.45;;;2.50;;
28766;SDS011;15921;52.034;20.650;2022-08-21T13:49:10;7.20;;;2.72;;
28766;SDS011;15921;52.034;20.650;2022-08-21T13:51:40;2.80;;;2.28;;
28766;SDS011;15921;52.034;20.650;2022-08-21T13:54:23;4.18;;;2.35;;
28766;SDS011;15921;52.034;20.650;2022-08-21T13:56:49;4.00;;;2.55;;
28766;SDS011;15921;52.034;20.650;2022-08-21T13:59:28;3.35;;;2.50;;
28766;SDS011;15921;52.034;20.650;2022-08-21T14:02:16;4.32;;;2.60;;
28766;SDS011;15921;52.034;20.650;2022-08-21T14:04:58;9.85;;;2.70;;
28766;SDS011;15921;52.034;20.650;2022-08-21T14:07:28;3.53;;;2.70;;
28766;SDS011;15921;52.034;20.650;2022-08-21T14:10:00;3.28;;;2.15;;
28766;SDS011;15921;52.034;20.650;2022-08-21T14:12:43;6.70;;;2.58;;
28766;SDS011;15921;52.034;20.650;2022-08-21T14:15:13;4.85;;;2.53;;
28766;SDS011;15921;52.034;20.650;2022-08-21T14:17:41;5.55;;;2.83;;
28766;SDS011;15921;52.034;20.650;2022-08-21T14:20:30;5.40;;;2.40;;
28766;SDS011;15921;52.034;20.650;2022-08-21T14:22:59;3.28;;;2.10;;
28766;SDS011;15921;52.034;20.650;2022-08-21T14:25:28;3.83;;;2.22;;
28766;SDS011;15921;52.034;20.650;2022-08-21T14:30:31;3.05;;;2.33;;
28766;SDS011;15921;52.034;20.650;2022-08-21T14:33:00;6.93;;;2.40;;
28766;SDS011;15921;52.034;20.650;2022-08-21T14:35:27;3.47;;;2.25;;
28766;SDS011;15921;52.034;20.650;2022-08-21T14:37:53;5.80;;;2.70;;
28766;SDS011;15921;52.034;20.650;2022-08-21T14:40:20;2.17;;;2.00;;
28766;SDS011;15921;52.034;20.650;2022-08-21T14:42:47;4.80;;;2.35;;
28766;SDS011;15921;52.034;20.650;2022-08-21T14:45:27;2.90;;;2.30;;
28766;SDS011;15921;52.034;20.650;2022-08-21T14:47:55;3.85;;;2.53;;
28766;SDS011;15921;52.034;20.650;2022-08-21T14:50:22;2.58;;;2.25;;
28766;SDS011;15921;52.034;20.650;2022-08-21T14:52:48;3.25;;;2.30;;
28766;SDS011;15921;52.034;20.650;2022-08-21T14:55:15;6.57;;;2.60;;
28766;SDS011;15921;52.034;20.650;2022-08-21T14:57:42;6.68;;;2.13;;
28766;SDS011;15921;52.034;20.650;2022-08-21T15:00:12;3.22;;;2.92;;
28766;SDS011;15921;52.034;20.650;2022-08-21T15:02:39;6.03;;;2.63;;
28766;SDS011;15921;52.034;20.650;2022-08-21T15:05:05;4.00;;;2.50;;
28766;SDS011;15921;52.034;20.650;2022-08-21T15:07:31;5.22;;;2.33;;
28766;SDS011;15921;52.034;20.650;2022-08-21T15:09:57;4.75;;;3.08;;
28766;SDS011;15921;52.034;20.650;2022-08-21T15:12:23;3.55;;;2.53;;
28766;SDS011;15921;52.034;20.650;2022-08-21T15:14:49;7.95;;;2.35;;
28766;SDS011;15921;52.034;20.650;2022-08-21T15:17:16;5.63;;;2.70;;
28766;SDS011;15921;52.034;20.650;2022-08-21T15:19:42;2.60;;;2.40;;
28766;SDS011;15921;52.034;20.650;2022-08-21T15:22:08;4.40;;;2.83;;
28766;SDS011;15921;52.034;20.650;2022-08-21T15:24:33;4.35;;;2.80;;
28766;SDS011;15921;52.034;20.650;2022-08-21T15:27:00;5.03;;;2.72;;
28766;SDS011;15921;52.034;20.650;2022-08-21T15:29:28;4.22;;;2.80;;
28766;SDS011;15921;52.034;20.650;2022-08-21T15:32:00;4.00;;;2.78;;
28766;SDS011;15921;52.034;20.650;2022-08-21T15:34:29;6.07;;;3.08;;
28766;SDS011;15921;52.034;20.650;2022-08-21T15:36:56;8.93;;;2.88;;
28766;SDS011;15921;52.034;20.650;2022-08-21T15:39:23;7.63;;;3.40;;
28766;SDS011;15921;52.034;20.650;2022-08-21T15:41:49;13.43;;;3.03;;
28766;SDS011;15921;52.034;20.650;2022-08-21T15:44:15;3.25;;;2.60;;
28766;SDS011;15921;52.034;20.650;2022-08-21T15:46:41;5.18;;;3.10;;
28766;SDS011;15921;52.034;20.650;2022-08-21T15:49:09;6.28;;;2.97;;
28766;SDS011;15921;52.034;20.650;2022-08-21T15:51:35;4.70;;;3.10;;
28766;SDS011;15921;52.034;20.650;2022-08-21T15:54:01;3.88;;;2.95;;